createdAt,value
2023-05-15T00:01:47.506Z,29.77
2023-05-15T00:06:53.026Z,31.42
2023-05-15T00:11:58.759Z,30.10
2023-05-15T00:17:04.597Z,30.33
2023-05-15T00:22:09.933Z,25.80
2023-05-15T00:27:15.217Z,27.87
2023-05-15T00:32:20.845Z,27.33
2023-05-15T00:37:26.505Z,24.00
2023-05-15T00:42:32.656Z,26.77
2023-05-15T00:47:38.531Z,26.65
2023-05-15T00:52:45.132Z,22.67
2023-05-15T00:57:51.481Z,26.55
2023-05-15T01:02:57.484Z,24.58
2023-05-15T01:08:29.854Z,28.85
2023-05-15T01:13:38.416Z,23.95
2023-05-15T01:18:44.499Z,22.95
2023-05-15T01:24:26.575Z,20.92
2023-05-15T01:29:46.703Z,23.92
2023-05-15T01:34:53.631Z,20.30
2023-05-15T01:40:06.286Z,17.50
2023-05-15T01:45:20.113Z,18.58
2023-05-15T01:50:29.091Z,18.90
2023-05-15T01:55:36.101Z,18.98
2023-05-15T02:00:42.852Z,16.17
2023-05-15T02:05:49.382Z,17.88
2023-05-15T02:10:55.366Z,25.20
2023-05-15T02:21:09.697Z,18.08
2023-05-15T02:26:24.633Z,19.77
2023-05-15T02:31:47.981Z,21.02
2023-05-15T02:36:55.365Z,17.60
2023-05-15T02:42:02.737Z,18.65
2023-05-15T02:47:09.269Z,11.82
2023-05-15T02:52:15.018Z,10.77
2023-05-15T02:57:20.918Z,19.30
2023-05-15T03:02:26.491Z,6.93
2023-05-15T03:07:31.945Z,8.35
2023-05-15T03:12:37.819Z,16.17
2023-05-15T03:17:46.023Z,10.98
2023-05-15T03:22:51.789Z,11.52
2023-05-15T03:33:05.679Z,8.90
2023-05-15T03:38:11.806Z,12.57
2023-05-15T03:43:18.786Z,11.88
2023-05-15T03:48:26.909Z,14.05
2023-05-15T03:53:33.145Z,11.35
2023-05-15T03:58:38.513Z,7.80
2023-05-15T04:03:44.373Z,12.37
2023-05-15T04:13:55.180Z,10.00
2023-05-15T04:19:01.298Z,10.20
2023-05-15T04:24:07.132Z,7.40
2023-05-15T04:29:13.023Z,7.60
2023-05-15T04:34:18.610Z,12.25
2023-05-15T04:44:29.559Z,6.10
2023-05-15T04:49:35.417Z,15.25
2023-05-15T04:59:46.283Z,13.38
2023-05-15T05:04:52.041Z,9.82
2023-05-15T05:15:02.871Z,17.63
2023-05-15T05:20:13.116Z,17.47
2023-05-15T05:25:22.152Z,5.35
2023-05-15T05:30:27.796Z,12.77
2023-05-15T05:35:33.704Z,13.90
2023-05-15T05:40:39.615Z,21.80
2023-05-15T05:50:50.360Z,21.77
2023-05-15T05:56:40.273Z,15.80
2023-05-15T06:01:55.295Z,14.05
2023-05-15T06:07:07.792Z,15.82
2023-05-15T06:12:23.183Z,20.95
2023-05-15T06:17:28.641Z,22.63
2023-05-15T06:22:34.844Z,20.67
2023-05-15T06:27:40.735Z,19.92
2023-05-15T06:37:51.838Z,27.48
2023-05-15T06:42:59.864Z,15.02
2023-05-15T06:48:06.208Z,25.42
2023-05-15T06:53:13.073Z,19.20
2023-05-15T06:58:20.421Z,20.42
2023-05-15T07:15:51.876Z,23.02
2023-05-15T07:20:57.460Z,23.05
2023-05-15T07:31:11.711Z,20.38
2023-05-15T07:36:17.385Z,19.77
2023-05-15T07:41:23.408Z,21.13
2023-05-15T07:46:29.037Z,14.77
2023-05-15T07:51:36.019Z,24.88
2023-05-15T07:56:42.878Z,22.90
2023-05-15T08:01:48.468Z,20.75
2023-05-15T08:12:18.149Z,23.55
2023-05-15T08:17:24.802Z,12.30
2023-05-15T08:22:31.833Z,21.38
2023-05-15T08:27:37.439Z,23.25
2023-05-15T08:32:44.870Z,15.20
2023-05-15T08:45:03.150Z,14.25
2023-05-15T08:50:17.868Z,20.50
2023-05-15T08:55:27.490Z,23.38
2023-05-15T09:00:43.503Z,17.20
2023-05-15T09:11:31.256Z,18.38
2023-05-15T09:24:40.332Z,23.15
2023-05-15T09:29:49.786Z,30.17
2023-05-15T09:34:57.666Z,28.40
2023-05-15T09:40:15.804Z,23.52
2023-05-15T09:45:21.931Z,32.75
2023-05-15T09:51:07.121Z,30.85
2023-05-15T09:56:13.306Z,33.58
2023-05-15T10:01:23.302Z,32.28
2023-05-15T10:06:30.153Z,42.92
2023-05-15T10:11:40.608Z,29.05
2023-05-15T10:16:46.986Z,35.70
2023-05-15T10:21:54.218Z,31.48
2023-05-15T10:27:00.675Z,46.22
2023-05-15T10:32:07.095Z,45.05
2023-05-15T10:37:14.454Z,39.58
2023-05-15T10:42:20.172Z,40.83
2023-05-15T10:47:26.261Z,30.98
2023-05-15T10:52:33.427Z,43.60
2023-05-15T10:57:39.605Z,42.70
2023-05-15T11:02:45.214Z,36.45
2023-05-15T11:08:23.088Z,49.42
2023-05-15T11:13:28.675Z,50.25
2023-05-15T11:18:39.373Z,49.97
2023-05-15T11:23:45.273Z,38.47
2023-05-15T11:28:51.338Z,42.72
2023-05-15T11:33:56.721Z,38.97
2023-05-15T11:39:51.777Z,32.15
2023-05-15T11:44:58.852Z,37.95
2023-05-15T11:50:08.170Z,34.75
2023-05-15T11:55:13.572Z,41.92
2023-05-15T12:06:50.843Z,38.00
2023-05-15T12:11:57.870Z,41.83
2023-05-15T12:17:07.453Z,41.55
2023-05-15T12:22:13.598Z,42.83
2023-05-15T12:27:19.693Z,48.03
2023-05-15T12:32:25.482Z,43.53
2023-05-15T12:37:37.219Z,40.72
2023-05-15T12:42:46.738Z,38.80
2023-05-15T12:47:53.144Z,39.15
2023-05-15T12:53:06.188Z,41.90
2023-05-15T12:58:14.283Z,44.00
2023-05-15T13:03:27.325Z,39.45
2023-05-15T13:08:47.728Z,39.90
2023-05-15T13:14:01.064Z,46.15
2023-05-15T13:19:15.172Z,41.80
2023-05-15T13:29:52.092Z,44.88
2023-05-15T13:35:01.154Z,26.45
2023-05-15T13:40:43.132Z,42.60
2023-05-15T13:45:58.230Z,42.60
2023-05-15T13:56:44.089Z,39.13
2023-05-15T14:02:12.793Z,33.65
2023-05-15T14:07:22.272Z,32.45
2023-05-15T14:12:35.137Z,35.72
2023-05-15T14:17:48.222Z,26.92
2023-05-15T14:22:57.594Z,36.15
2023-05-15T14:28:07.209Z,26.63
2023-05-15T14:33:15.524Z,29.13
2023-05-15T14:38:25.843Z,31.25
2023-05-15T14:43:37.305Z,27.58
2023-05-15T14:48:43.043Z,32.00
2023-05-15T14:53:49.489Z,28.05
2023-05-15T14:58:56.630Z,29.48
2023-05-15T15:04:08.715Z,33.35
2023-05-15T15:09:23.202Z,29.67
2023-05-15T15:14:37.320Z,31.67
2023-05-15T15:19:52.150Z,27.42
2023-05-15T15:25:05.650Z,28.00
2023-05-15T15:30:23.098Z,29.20
2023-05-15T15:35:31.777Z,34.70
2023-05-15T15:40:37.813Z,28.02
2023-05-15T15:45:48.894Z,28.58
2023-05-15T15:50:55.772Z,17.55
2023-05-15T15:56:06.425Z,28.90
2023-05-15T16:01:26.361Z,16.63
2023-05-15T16:06:31.909Z,23.40
2023-05-15T16:11:37.387Z,21.23
2023-05-15T16:16:43.386Z,29.25
2023-05-15T16:21:50.445Z,21.58
2023-05-15T16:26:56.844Z,22.65
2023-05-15T16:32:02.698Z,28.58
2023-05-15T16:42:13.542Z,33.15
2023-05-15T16:47:22.237Z,27.88
2023-05-15T16:52:35.380Z,30.45
2023-05-15T16:57:42.243Z,27.65
2023-05-15T17:02:51.658Z,29.77
2023-05-15T17:08:12.995Z,28.33
2023-05-15T17:13:18.885Z,35.00
2023-05-15T17:18:27.871Z,28.80
2023-05-15T17:23:33.570Z,27.98
2023-05-15T17:28:39.293Z,26.75
2023-05-15T17:33:45.339Z,29.42
2023-05-15T17:38:52.038Z,29.65
2023-05-15T17:43:57.372Z,21.85
2023-05-15T17:49:03.082Z,28.67
2023-05-15T17:59:14.240Z,29.20
2023-05-15T18:04:20.147Z,29.52
2023-05-15T18:09:25.992Z,27.85
2023-05-15T18:14:31.614Z,29.13
2023-05-15T18:19:36.994Z,31.35
2023-05-15T18:24:42.364Z,26.67
2023-05-15T18:29:48.321Z,26.88
2023-05-15T18:34:54.001Z,28.98
2023-05-15T18:40:03.101Z,27.58
2023-05-15T18:45:09.286Z,32.83
2023-05-15T18:50:15.762Z,29.70
2023-05-15T18:55:23.033Z,29.63
2023-05-15T19:00:37.891Z,25.77
2023-05-15T19:05:44.910Z,28.63
2023-05-15T19:11:00.605Z,27.80
2023-05-15T19:16:08.389Z,27.90
2023-05-15T19:21:13.828Z,30.52
2023-05-15T19:26:19.529Z,32.15
2023-05-15T19:36:37.599Z,27.02
2023-05-15T19:41:44.052Z,28.23
2023-05-15T19:46:49.648Z,33.30
2023-05-15T19:52:10.005Z,30.17
2023-05-15T19:57:15.136Z,31.30
2023-05-15T20:02:32.642Z,29.10
2023-05-15T20:07:40.643Z,31.50
2023-05-15T20:12:47.089Z,32.55
2023-05-15T20:17:55.454Z,30.92
2023-05-15T20:23:01.136Z,27.27
2023-05-15T20:28:07.069Z,27.13
2023-05-15T20:33:12.898Z,28.23
2023-05-15T20:43:28.286Z,27.63
2023-05-15T20:48:37.414Z,40.00
2023-05-15T20:53:42.606Z,28.40
2023-05-15T20:58:47.900Z,34.90
2023-05-15T21:03:53.768Z,48.42
2023-05-15T21:08:59.287Z,27.90
2023-05-15T21:14:11.062Z,32.60
2023-05-15T21:19:16.443Z,34.20
2023-05-15T21:24:22.837Z,30.48
2023-05-15T21:29:28.004Z,30.10
2023-05-15T21:34:33.901Z,31.73
2023-05-15T21:39:39.350Z,29.50
2023-05-15T21:44:44.904Z,25.80
2023-05-15T21:49:50.205Z,34.35
2023-05-15T21:54:55.857Z,23.02
2023-05-15T22:00:01.439Z,30.60
2023-05-15T22:05:07.005Z,28.88
2023-05-15T22:10:17.916Z,30.17
2023-05-15T22:15:35.489Z,26.88
2023-05-15T22:20:41.263Z,36.08
2023-05-15T22:25:46.831Z,34.10
2023-05-15T22:30:52.144Z,38.30
2023-05-15T22:35:57.922Z,53.65
2023-05-15T22:41:03.092Z,51.80
2023-05-15T22:46:10.399Z,38.77
2023-05-15T22:51:17.657Z,37.33
2023-05-15T22:56:23.410Z,43.75
2023-05-15T23:06:33.970Z,43.33
2023-05-15T23:16:45.803Z,44.15
2023-05-15T23:21:51.080Z,39.53
2023-05-15T23:26:56.677Z,44.50
2023-05-15T23:32:02.382Z,46.65
2023-05-15T23:42:13.827Z,60.53
2023-05-15T23:47:19.557Z,60.65
2023-05-15T23:57:30.122Z,63.20
